createdAt,value
2018-06-13T00:02:21.355Z,8.07
2018-06-13T00:04:50.190Z,7.57
2018-06-13T00:07:19.431Z,8.63
2018-06-13T00:09:48.313Z,11.23
2018-06-13T00:12:17.119Z,8.37
2018-06-13T00:14:45.955Z,5.17
2018-06-13T00:17:14.883Z,5.00
2018-06-13T00:19:43.673Z,4.73
2018-06-13T00:22:12.500Z,5.57
2018-06-13T00:24:41.320Z,5.67
2018-06-13T00:27:10.102Z,4.93
2018-06-13T00:29:38.547Z,7.57
2018-06-13T00:32:07.336Z,8.33
2018-06-13T00:34:36.089Z,6.47
2018-06-13T00:37:04.983Z,7.83
2018-06-13T00:39:33.839Z,8.47
2018-06-13T00:42:02.671Z,6.07
2018-06-13T00:44:31.529Z,8.27
2018-06-13T00:47:00.365Z,6.23
2018-06-13T00:49:29.173Z,6.40
2018-06-13T00:51:58.045Z,7.47
2018-06-13T00:54:26.886Z,6.50
2018-06-13T00:56:55.783Z,6.70
2018-06-13T00:59:24.677Z,6.23
2018-06-13T01:01:53.548Z,6.17
2018-06-13T01:04:22.544Z,6.33
2018-06-13T01:06:51.467Z,5.87
2018-06-13T01:09:20.316Z,7.90
2018-06-13T01:11:49.152Z,8.53
2018-06-13T01:14:17.988Z,10.30
2018-06-13T01:16:46.803Z,18.27
2018-06-13T01:19:15.740Z,17.17
2018-06-13T01:21:44.630Z,14.87
2018-06-13T01:24:14.164Z,20.60
2018-06-13T01:26:43.036Z,18.90
2018-06-13T01:29:11.930Z,15.77
2018-06-13T01:31:40.768Z,15.37
2018-06-13T01:34:09.622Z,13.50
2018-06-13T01:36:38.520Z,15.20
2018-06-13T01:39:08.388Z,17.03
2018-06-13T01:41:36.937Z,15.03
2018-06-13T01:44:05.765Z,10.03
2018-06-13T01:46:34.601Z,9.57
2018-06-13T01:49:03.468Z,8.90
2018-06-13T01:51:32.361Z,10.43
2018-06-13T01:54:01.210Z,9.80
2018-06-13T01:56:30.094Z,7.60
2018-06-13T01:58:58.995Z,8.90
2018-06-13T02:01:27.829Z,10.67
2018-06-13T02:03:56.637Z,8.83
2018-06-13T02:06:26.142Z,6.97
2018-06-13T02:08:55.038Z,8.67
2018-06-13T02:11:23.860Z,12.50
2018-06-13T02:13:52.744Z,10.50
2018-06-13T02:16:21.572Z,8.10
2018-06-13T02:18:50.405Z,7.73
2018-06-13T02:21:19.342Z,12.23
2018-06-13T02:23:48.215Z,9.53
2018-06-13T02:26:17.093Z,9.93
2018-06-13T02:28:46.048Z,7.80
2018-06-13T02:31:15.032Z,11.03
2018-06-13T02:33:43.934Z,8.53
2018-06-13T02:36:12.856Z,8.87
2018-06-13T02:38:41.695Z,8.83
2018-06-13T02:41:10.571Z,7.90
2018-06-13T02:43:39.402Z,11.83
2018-06-13T02:46:08.294Z,8.97
2018-06-13T02:48:37.300Z,9.33
2018-06-13T02:51:06.216Z,9.17
2018-06-13T02:53:35.312Z,9.27
2018-06-13T02:56:04.271Z,7.77
2018-06-13T02:58:33.147Z,9.60
2018-06-13T03:01:01.991Z,10.93
2018-06-13T03:03:30.443Z,7.67
2018-06-13T03:05:59.268Z,7.37
2018-06-13T03:08:28.118Z,7.27
2018-06-13T03:10:56.958Z,9.10
2018-06-13T03:13:25.810Z,9.93
2018-06-13T03:15:54.703Z,8.10
2018-06-13T03:18:23.613Z,9.47
2018-06-13T03:20:52.804Z,9.33
2018-06-13T03:23:22.479Z,7.90
2018-06-13T03:25:51.400Z,9.40
2018-06-13T03:28:20.307Z,8.30
2018-06-13T03:30:49.234Z,11.27
2018-06-13T03:33:18.094Z,11.03
2018-06-13T03:35:47.016Z,8.40
2018-06-13T03:38:15.912Z,8.53
2018-06-13T03:40:45.678Z,9.50
2018-06-13T03:43:14.644Z,9.83
2018-06-13T03:45:43.899Z,8.47
2018-06-13T03:48:12.808Z,8.83
2018-06-13T03:50:41.689Z,7.60
2018-06-13T03:53:10.562Z,9.30
2018-06-13T03:55:39.394Z,10.37
2018-06-13T03:58:08.283Z,6.80
2018-06-13T04:00:37.131Z,10.33
2018-06-13T04:03:06.121Z,11.63
2018-06-13T04:05:35.025Z,10.53
2018-06-13T04:08:03.879Z,8.77
2018-06-13T04:10:32.706Z,10.33
2018-06-13T04:13:01.526Z,8.67
2018-06-13T04:15:30.372Z,9.70
2018-06-13T04:17:59.258Z,7.10
2018-06-13T04:20:28.180Z,8.27
2018-06-13T04:22:57.023Z,7.43
2018-06-13T04:25:25.899Z,7.77
2018-06-13T04:27:54.804Z,7.53
2018-06-13T04:30:23.631Z,7.87
2018-06-13T04:32:52.485Z,7.53
2018-06-13T04:35:21.274Z,10.17
2018-06-13T04:37:50.159Z,7.90
2018-06-13T04:40:19.057Z,8.13
2018-06-13T04:42:47.953Z,6.93
2018-06-13T04:45:16.834Z,7.17
2018-06-13T04:47:45.753Z,8.37
2018-06-13T04:50:14.643Z,7.70
2018-06-13T04:52:43.536Z,7.17
2018-06-13T04:55:12.465Z,9.17
2018-06-13T04:57:41.400Z,6.10
2018-06-13T05:00:10.412Z,7.30
2018-06-13T05:02:39.295Z,8.03
2018-06-13T05:05:08.100Z,7.17
2018-06-13T05:07:36.946Z,7.43
2018-06-13T05:10:05.749Z,6.93
2018-06-13T05:12:34.674Z,4.20
2018-06-13T05:15:03.820Z,4.70
2018-06-13T05:17:32.686Z,4.30
2018-06-13T05:20:01.637Z,6.67
2018-06-13T05:22:30.552Z,7.33
2018-06-13T05:24:58.970Z,5.63
2018-06-13T05:27:28.807Z,4.80
2018-06-13T05:29:58.091Z,5.67
2018-06-13T05:32:26.983Z,5.37
2018-06-13T05:34:55.901Z,5.73
2018-06-13T05:37:24.924Z,6.10
2018-06-13T05:39:54.618Z,7.53
2018-06-13T05:42:23.708Z,5.93
2018-06-13T05:44:52.909Z,7.30
2018-06-13T05:47:21.788Z,6.30
2018-06-13T05:49:52.200Z,7.03
2018-06-13T05:52:21.390Z,8.70
2018-06-13T05:54:50.441Z,6.93
2018-06-13T05:57:19.300Z,6.73
2018-06-13T05:59:48.128Z,8.53
2018-06-13T06:02:17.364Z,6.47
2018-06-13T06:04:46.662Z,10.10
2018-06-13T06:07:15.583Z,9.17
2018-06-13T06:09:44.469Z,10.97
2018-06-13T06:12:14.227Z,7.43
2018-06-13T06:14:43.156Z,7.27
2018-06-13T06:17:12.015Z,8.67
2018-06-13T06:19:40.867Z,6.73
2018-06-13T06:22:09.809Z,7.23
2018-06-13T06:24:38.688Z,6.73
2018-06-13T06:27:07.582Z,7.83
2018-06-13T06:29:36.466Z,8.83
2018-06-13T06:32:05.350Z,9.40
2018-06-13T06:34:34.428Z,10.50
2018-06-13T06:37:03.471Z,6.77
2018-06-13T06:39:36.059Z,7.47
2018-06-13T06:42:05.194Z,7.63
2018-06-13T06:44:34.083Z,9.07
2018-06-13T06:47:03.015Z,5.70
2018-06-13T06:49:31.915Z,6.23
2018-06-13T06:52:00.845Z,9.23
2018-06-13T06:54:30.001Z,13.70
2018-06-13T06:56:58.900Z,11.83
2018-06-13T06:59:27.804Z,14.33
2018-06-13T07:01:56.626Z,10.27
2018-06-13T07:04:25.501Z,10.07
2018-06-13T07:06:55.324Z,7.90
2018-06-13T07:09:24.272Z,9.80
2018-06-13T07:11:53.111Z,11.50
2018-06-13T07:14:22.008Z,12.50
2018-06-13T07:16:50.927Z,12.13
2018-06-13T07:19:19.855Z,14.50
2018-06-13T07:21:50.529Z,13.43
2018-06-13T07:24:19.571Z,13.00
2018-06-13T07:26:48.651Z,11.37
2018-06-13T07:29:17.485Z,14.97
2018-06-13T07:31:48.321Z,19.63
2018-06-13T07:34:18.037Z,11.93
2018-06-13T07:36:46.968Z,11.70
2018-06-13T07:39:16.074Z,10.50
2018-06-13T07:41:46.242Z,8.20
2018-06-13T07:44:15.516Z,7.63
2018-06-13T07:46:44.853Z,10.20
2018-06-13T07:49:13.939Z,8.37
2018-06-13T07:51:44.690Z,7.60
2018-06-13T07:54:15.544Z,6.57
2018-06-13T07:56:46.586Z,9.87
2018-06-13T07:59:15.154Z,10.07
2018-06-13T08:01:45.217Z,8.37
2018-06-13T08:04:14.109Z,8.63
2018-06-13T08:06:47.545Z,8.27
2018-06-13T08:09:16.441Z,8.00
2018-06-13T08:11:48.165Z,10.27
2018-06-13T08:14:17.931Z,8.17
2018-06-13T08:16:47.340Z,9.57
2018-06-13T08:19:19.131Z,8.70
2018-06-13T08:21:50.214Z,6.70
2018-06-13T08:24:24.384Z,9.93
2018-06-13T08:26:55.314Z,8.57
2018-06-13T08:29:24.306Z,8.03
2018-06-13T08:31:53.267Z,7.17
2018-06-13T08:34:27.970Z,8.30
2018-06-13T08:36:57.014Z,9.27
2018-06-13T08:39:26.991Z,9.60
2018-06-13T08:41:55.796Z,8.73
2018-06-13T08:44:25.254Z,8.17
2018-06-13T08:46:54.167Z,7.50
2018-06-13T08:49:23.176Z,9.37
2018-06-13T08:51:52.410Z,8.50
2018-06-13T08:54:26.366Z,8.67
2018-06-13T08:56:55.655Z,8.00
2018-06-13T08:59:28.783Z,9.27
2018-06-13T09:02:01.386Z,8.27
2018-06-13T09:04:31.425Z,9.60
2018-06-13T09:07:01.890Z,8.97
2018-06-13T09:09:32.348Z,11.00
2018-06-13T09:12:05.124Z,10.03
2018-06-13T09:14:36.329Z,7.23
2018-06-13T09:17:07.852Z,14.97
2018-06-13T09:19:37.938Z,9.23
2018-06-13T09:22:06.481Z,6.50
2018-06-13T09:24:35.496Z,8.50
2018-06-13T09:27:05.853Z,5.87
2018-06-13T09:29:40.150Z,7.87
2018-06-13T09:32:10.675Z,7.37
2018-06-13T09:34:42.443Z,7.70
2018-06-13T09:37:13.101Z,7.00
2018-06-13T09:39:43.292Z,8.87
2018-06-13T09:42:12.897Z,7.37
2018-06-13T09:44:49.443Z,6.73
2018-06-13T09:47:24.035Z,7.53
2018-06-13T09:49:54.664Z,7.53
2018-06-13T09:52:25.741Z,5.40
2018-06-13T09:55:00.193Z,4.83
2018-06-13T09:57:29.476Z,10.87
2018-06-13T10:00:06.759Z,6.37
2018-06-13T10:02:37.412Z,9.80
2018-06-13T10:05:10.475Z,4.77
2018-06-13T10:07:44.099Z,5.50
2018-06-13T10:10:13.173Z,8.20
2018-06-13T10:12:42.256Z,5.70
2018-06-13T10:15:11.291Z,6.63
2018-06-13T10:17:43.506Z,5.90
2018-06-13T10:20:14.177Z,5.13
2018-06-13T10:22:44.155Z,6.43
2018-06-13T10:25:13.189Z,6.20
2018-06-13T10:27:44.391Z,3.33
2018-06-13T10:30:17.036Z,7.87
2018-06-13T10:32:49.105Z,5.47
2018-06-13T10:35:18.165Z,5.53
2018-06-13T10:37:50.466Z,5.33
2018-06-13T10:40:21.300Z,7.33
2018-06-13T10:42:52.495Z,6.47
2018-06-13T10:45:23.486Z,9.03
2018-06-13T10:47:52.505Z,6.73
2018-06-13T10:50:23.284Z,6.37
2018-06-13T10:52:55.274Z,5.83
2018-06-13T10:55:26.209Z,6.30
2018-06-13T10:57:55.532Z,6.30
2018-06-13T11:00:26.188Z,5.80
2018-06-13T11:02:57.042Z,7.43
2018-06-13T11:05:31.754Z,8.13
2018-06-13T11:08:07.788Z,7.07
2018-06-13T11:10:42.357Z,9.63
2018-06-13T11:13:12.195Z,6.43
2018-06-13T11:15:46.690Z,6.40
2018-06-13T11:18:24.801Z,7.50
2018-06-13T11:20:53.845Z,5.13
2018-06-13T11:23:23.701Z,10.00
2018-06-13T11:25:52.953Z,6.13
2018-06-13T11:28:25.222Z,4.33
2018-06-13T11:30:54.514Z,4.60
2018-06-13T11:33:25.272Z,8.33
2018-06-13T11:35:54.326Z,5.77
2018-06-13T11:38:28.079Z,4.90
2018-06-13T11:40:57.958Z,5.77
2018-06-13T11:43:26.888Z,4.70
2018-06-13T11:45:58.728Z,3.40
2018-06-13T11:48:27.730Z,3.43
2018-06-13T11:50:56.796Z,4.77
2018-06-13T11:53:28.244Z,4.43
2018-06-13T11:55:57.459Z,5.70
2018-06-13T11:58:28.258Z,5.40
2018-06-13T12:00:57.365Z,5.93
2018-06-13T12:03:26.415Z,5.40
2018-06-13T12:05:55.542Z,9.33
2018-06-13T12:08:24.613Z,5.97
2018-06-13T12:10:53.484Z,6.60
2018-06-13T12:13:22.389Z,4.33
2018-06-13T12:15:51.266Z,7.60
2018-06-13T12:18:20.421Z,4.80
2018-06-13T12:20:49.837Z,7.00
2018-06-13T12:23:18.818Z,6.93
2018-06-13T12:25:47.784Z,7.33
2018-06-13T12:28:16.661Z,5.50
2018-06-13T12:30:45.534Z,5.53
2018-06-13T12:33:14.374Z,4.03
2018-06-13T12:35:43.269Z,8.50
2018-06-13T12:38:12.138Z,5.07
2018-06-13T12:40:41.003Z,7.17
2018-06-13T12:43:09.923Z,4.57
2018-06-13T12:45:38.881Z,8.00
2018-06-13T12:48:07.770Z,6.40
2018-06-13T12:50:36.675Z,5.33
2018-06-13T12:53:05.586Z,5.23
2018-06-13T12:55:34.426Z,4.87
2018-06-13T12:58:03.319Z,5.20
2018-06-13T13:00:35.194Z,8.10
2018-06-13T13:03:04.240Z,5.97
2018-06-13T13:05:33.180Z,6.30
2018-06-13T13:08:02.026Z,4.50
2018-06-13T13:10:31.670Z,5.23
2018-06-13T13:13:00.452Z,9.60
2018-06-13T13:15:29.332Z,5.90
2018-06-13T13:17:58.259Z,4.13
2018-06-13T13:20:27.236Z,3.53
2018-06-13T13:22:56.147Z,8.40
2018-06-13T13:25:25.001Z,4.67
2018-06-13T13:27:53.943Z,6.33
2018-06-13T13:30:22.826Z,5.63
2018-06-13T13:32:53.013Z,9.17
2018-06-13T13:35:21.971Z,8.07
2018-06-13T13:37:50.379Z,5.87
2018-06-13T13:40:19.297Z,7.20
2018-06-13T13:42:48.942Z,8.07
2018-06-13T13:45:17.923Z,5.53
2018-06-13T13:47:46.779Z,6.30
2018-06-13T13:50:19.011Z,6.47
2018-06-13T13:52:47.860Z,8.40
2018-06-13T13:55:16.684Z,7.07
2018-06-13T13:57:45.608Z,6.93
2018-06-13T14:00:14.529Z,7.47
2018-06-13T14:02:43.383Z,5.93
2018-06-13T14:05:12.209Z,10.53
2018-06-13T14:07:41.069Z,6.83
2018-06-13T14:10:10.037Z,7.23
2018-06-13T14:12:38.932Z,6.90
2018-06-13T14:15:07.797Z,6.57
2018-06-13T14:17:36.652Z,8.13
2018-06-13T14:20:05.993Z,6.70
2018-06-13T14:22:34.923Z,9.13
2018-06-13T14:25:03.823Z,6.93
2018-06-13T14:27:32.714Z,4.77
2018-06-13T14:30:01.518Z,4.40
2018-06-13T14:32:30.406Z,8.40
2018-06-13T14:34:59.256Z,6.13
2018-06-13T14:37:28.137Z,5.33
2018-06-13T14:39:57.119Z,9.60
2018-06-13T14:42:25.987Z,6.40
2018-06-13T14:44:54.920Z,7.00
2018-06-13T14:47:23.741Z,6.60
2018-06-13T14:49:52.630Z,6.10
2018-06-13T14:52:21.481Z,8.07
2018-06-13T14:54:50.420Z,6.50
2018-06-13T14:57:19.329Z,5.83
2018-06-13T14:59:48.222Z,10.07
2018-06-13T15:02:17.033Z,6.97
2018-06-13T15:04:45.897Z,6.00
2018-06-13T15:07:14.845Z,7.40
2018-06-13T15:09:43.695Z,8.63
2018-06-13T15:12:12.577Z,7.83
2018-06-13T15:14:41.472Z,9.00
2018-06-13T15:17:09.937Z,5.70
2018-06-13T15:19:38.817Z,7.97
2018-06-13T15:22:07.821Z,7.47
2018-06-13T15:24:36.720Z,8.73
2018-06-13T15:27:05.623Z,7.27
2018-06-13T15:29:34.050Z,6.43
2018-06-13T15:32:02.923Z,7.30
2018-06-13T15:34:32.727Z,7.17
2018-06-13T15:37:01.563Z,6.30
2018-06-13T15:39:30.449Z,5.33
2018-06-13T15:41:59.291Z,5.37
2018-06-13T15:44:28.206Z,5.13
2018-06-13T15:46:57.049Z,6.97
2018-06-13T15:49:25.954Z,4.53
2018-06-13T15:51:54.917Z,5.20
2018-06-13T15:54:24.397Z,7.40
2018-06-13T15:56:52.833Z,7.87
2018-06-13T15:59:21.912Z,7.67
2018-06-13T16:01:50.801Z,6.73
2018-06-13T16:04:19.700Z,7.73
2018-06-13T16:06:48.578Z,6.47
2018-06-13T16:09:17.466Z,7.33
2018-06-13T16:11:46.382Z,6.33
2018-06-13T16:14:15.309Z,7.20
2018-06-13T16:16:44.169Z,6.93
2018-06-13T16:19:13.041Z,8.60
2018-06-13T16:21:42.541Z,5.00
2018-06-13T16:24:11.432Z,5.93
2018-06-13T16:26:40.315Z,6.83
2018-06-13T16:29:09.151Z,6.83
2018-06-13T16:31:38.089Z,5.77
2018-06-13T16:34:06.982Z,7.53
2018-06-13T16:36:35.851Z,6.13
2018-06-13T16:39:06.714Z,6.50
2018-06-13T16:41:35.564Z,6.63
2018-06-13T16:44:04.484Z,5.90
2018-06-13T16:46:33.382Z,5.70
2018-06-13T16:49:02.291Z,5.93
2018-06-13T16:51:42.276Z,6.37
2018-06-13T16:54:13.776Z,5.20
2018-06-13T16:56:43.398Z,4.83
2018-06-13T16:59:12.280Z,6.57
2018-06-13T17:01:41.129Z,2.90
2018-06-13T17:04:09.659Z,4.93
2018-06-13T17:06:38.557Z,4.23
2018-06-13T17:09:08.158Z,5.73
2018-06-13T17:11:37.044Z,6.07
2018-06-13T17:14:05.916Z,7.63
2018-06-13T17:16:34.853Z,5.93
2018-06-13T17:19:03.766Z,5.77
2018-06-13T17:21:33.286Z,7.50
2018-06-13T17:24:02.190Z,7.37
2018-06-13T17:26:31.038Z,6.07
2018-06-13T17:29:00.003Z,5.80
2018-06-13T17:31:28.965Z,6.43
2018-06-13T17:33:57.944Z,6.47
2018-06-13T17:36:26.809Z,8.20
2018-06-13T17:38:55.647Z,6.63
2018-06-13T17:41:24.601Z,8.10
2018-06-13T17:43:53.419Z,8.80
2018-06-13T17:46:22.283Z,6.47
2018-06-13T17:48:51.153Z,4.87
2018-06-13T17:51:19.985Z,5.93
2018-06-13T17:53:48.922Z,6.53
2018-06-13T17:56:17.828Z,7.20
2018-06-13T17:58:46.280Z,6.40
2018-06-13T18:01:15.140Z,10.30
2018-06-13T18:03:44.005Z,6.10
2018-06-13T18:06:12.472Z,6.03
2018-06-13T18:08:41.345Z,6.73
2018-06-13T18:11:10.236Z,8.43
2018-06-13T18:13:39.038Z,6.37
2018-06-13T18:16:07.490Z,9.10
2018-06-13T18:18:36.347Z,6.00
2018-06-13T18:21:05.284Z,6.90
2018-06-13T18:23:34.159Z,7.43
2018-06-13T18:26:02.952Z,8.43
2018-06-13T18:28:31.778Z,6.60
2018-06-13T18:31:00.663Z,7.27
2018-06-13T18:33:29.888Z,6.87
2018-06-13T18:35:58.747Z,6.00
2018-06-13T18:38:28.329Z,5.97
2018-06-13T18:40:57.146Z,6.40
2018-06-13T18:43:25.989Z,7.30
2018-06-13T18:45:54.871Z,6.57
2018-06-13T18:48:23.722Z,6.20
2018-06-13T18:50:52.560Z,5.43
2018-06-13T18:53:21.388Z,7.40
2018-06-13T18:55:50.215Z,7.37
2018-06-13T18:58:28.267Z,6.93
2018-06-13T19:00:57.796Z,6.67
2018-06-13T19:03:27.101Z,8.87
2018-06-13T19:05:56.090Z,7.97
2018-06-13T19:08:27.671Z,6.30
2018-06-13T19:10:58.048Z,7.73
2018-06-13T19:13:30.418Z,6.70
2018-06-13T19:15:59.272Z,7.23
2018-06-13T19:18:28.086Z,7.23
2018-06-13T19:20:59.223Z,7.30
2018-06-13T19:23:28.113Z,8.03
2018-06-13T19:25:56.940Z,7.17
2018-06-13T19:28:25.714Z,7.47
2018-06-13T19:30:54.664Z,8.73
2018-06-13T19:33:23.655Z,6.27
2018-06-13T19:35:52.561Z,8.00
2018-06-13T19:38:21.417Z,8.50
2018-06-13T19:40:50.253Z,7.43
2018-06-13T19:43:24.249Z,10.07
2018-06-13T19:45:53.095Z,11.00
2018-06-13T19:48:27.217Z,9.30
2018-06-13T19:50:56.207Z,8.20
2018-06-13T19:53:30.281Z,9.07
2018-06-13T19:56:06.342Z,9.03
2018-06-13T19:58:37.381Z,9.80
2018-06-13T20:01:12.046Z,11.63
2018-06-13T20:03:48.705Z,8.50
2018-06-13T20:06:18.135Z,8.83
2018-06-13T20:08:47.196Z,10.33
2018-06-13T20:11:16.269Z,9.47
2018-06-13T20:13:50.360Z,10.60
2018-06-13T20:16:35.884Z,8.17
2018-06-13T20:19:37.872Z,9.13
2018-06-13T20:22:06.718Z,8.17
2018-06-13T20:24:35.631Z,7.73
2018-06-13T20:27:09.985Z,8.83
2018-06-13T20:29:43.930Z,11.77
2018-06-13T20:32:12.811Z,8.73
2018-06-13T20:34:41.689Z,11.40
2018-06-13T20:37:10.703Z,9.77
2018-06-13T20:39:39.601Z,10.03
2018-06-13T20:42:08.529Z,8.87
2018-06-13T20:44:37.402Z,12.00
2018-06-13T20:47:06.420Z,8.17
2018-06-13T20:49:35.298Z,8.90
2018-06-13T20:52:04.168Z,8.20
2018-06-13T20:54:42.106Z,8.43
2018-06-13T20:57:11.424Z,10.77
2018-06-13T20:59:40.274Z,9.70
2018-06-13T21:02:09.098Z,9.27
2018-06-13T21:04:37.986Z,7.40
2018-06-13T21:07:06.799Z,9.43
2018-06-13T21:09:35.603Z,8.93
2018-06-13T21:12:04.499Z,8.50
2018-06-13T21:14:33.399Z,9.83
2018-06-13T21:17:02.301Z,9.27
2018-06-13T21:19:31.267Z,8.63
2018-06-13T21:22:00.207Z,9.80
2018-06-13T21:24:29.080Z,8.20
2018-06-13T21:26:58.169Z,7.50
2018-06-13T21:29:27.016Z,9.17
2018-06-13T21:31:55.881Z,8.00
2018-06-13T21:34:24.680Z,8.63
2018-06-13T21:36:53.459Z,7.13
2018-06-13T21:39:22.290Z,7.80
2018-06-13T21:41:51.150Z,8.80
2018-06-13T21:44:20.007Z,11.70
2018-06-13T21:46:48.856Z,10.63
2018-06-13T21:49:17.635Z,8.47
2018-06-13T21:51:46.460Z,8.53
2018-06-13T21:54:15.343Z,8.83
2018-06-13T21:56:44.455Z,8.97
2018-06-13T21:59:13.323Z,9.90
2018-06-13T22:01:43.115Z,8.90
2018-06-13T22:04:11.948Z,11.57
2018-06-13T22:06:40.768Z,9.73
2018-06-13T22:09:10.816Z,8.13
2018-06-13T22:11:44.840Z,9.83
2018-06-13T22:14:14.258Z,7.83
2018-06-13T22:16:43.096Z,7.87
2018-06-13T22:19:11.869Z,8.77
2018-06-13T22:21:40.726Z,10.13
2018-06-13T22:24:09.643Z,10.67
2018-06-13T22:26:38.439Z,9.93
2018-06-13T22:29:07.435Z,9.93
2018-06-13T22:31:36.383Z,8.47
2018-06-13T22:34:05.186Z,10.53
2018-06-13T22:36:34.002Z,10.03
2018-06-13T22:39:02.969Z,9.07
2018-06-13T22:41:31.825Z,11.30
2018-06-13T22:44:00.620Z,10.73
2018-06-13T22:46:29.394Z,12.67
2018-06-13T22:48:58.214Z,10.37
2018-06-13T22:51:27.236Z,11.37
2018-06-13T22:53:56.078Z,9.70
2018-06-13T22:56:24.974Z,11.33
2018-06-13T22:58:53.754Z,10.07
2018-06-13T23:01:22.583Z,12.77
2018-06-13T23:03:51.445Z,12.37
2018-06-13T23:06:20.229Z,10.37
2018-06-13T23:08:48.999Z,9.80
2018-06-13T23:11:17.853Z,12.73
2018-06-13T23:13:46.627Z,10.10
2018-06-13T23:16:15.425Z,10.80
2018-06-13T23:18:44.205Z,11.03
2018-06-13T23:21:12.997Z,12.23
2018-06-13T23:23:41.784Z,11.93
2018-06-13T23:26:10.644Z,10.63
2018-06-13T23:28:39.464Z,13.23
2018-06-13T23:31:08.248Z,11.80
2018-06-13T23:33:37.062Z,12.47
2018-06-13T23:36:06.568Z,13.83
2018-06-13T23:38:35.324Z,12.73
2018-06-13T23:41:04.118Z,15.63
2018-06-13T23:43:32.906Z,14.23
2018-06-13T23:46:01.697Z,15.00
2018-06-13T23:48:30.530Z,17.10
2018-06-13T23:50:59.314Z,12.00
2018-06-13T23:53:28.225Z,16.17
2018-06-13T23:55:57.155Z,14.10
2018-06-13T23:58:25.943Z,15.30
